Kemmerer, Wyoming
Current Conditions -  °F | °C
As of 10:55 AM on Wednesday 28 Jan 2015 (Local Time) from KEMM Reporting Station
Overcast Overcast  
Wind Chill: 24°   Ceiling: 600
Heat Index: 34°   Visibility: 10mi
Dew Point: 32°   Wind: 15mph
Humidity: 93%   Direction: 250°WSW
Pressure: 30.26"   Gusts: NA
Location:  41.79°N, 110.54°W
Report Text: KEMM 281755Z AUTO 25013KT 10SM BKN006 OVC009 01/00 A3026 RMK AO2 P0004
Loading
Personal Weather Stations






























Interactive Weather Map New forecast layout! Learn more

10-Day Weather Forecast

Advertisements
Track Severe Weather on mobile